createdAt,value
2022-12-24T00:00:45.825Z,-94.62
2022-12-24T00:01:45.767Z,-94.58
2022-12-24T00:02:48.796Z,-93.05
2022-12-24T00:03:48.818Z,-94.39
2022-12-24T00:04:45.757Z,-92.95
2022-12-24T00:05:45.716Z,-93.07
2022-12-24T00:06:45.691Z,-94.48
2022-12-24T00:07:45.699Z,-94.76
2022-12-24T00:08:45.669Z,-94.46
2022-12-24T00:09:45.651Z,-94.63
2022-12-24T00:10:45.668Z,-94.62
2022-12-24T00:11:45.656Z,-94.78
2022-12-24T00:12:45.657Z,-94.44
2022-12-24T00:13:45.618Z,-93.08
2022-12-24T00:14:45.600Z,-94.56
2022-12-24T00:15:45.617Z,-94.52
2022-12-24T00:16:45.635Z,-92.82
2022-12-24T00:17:45.610Z,-92.74
2022-12-24T00:18:46.988Z,-92.91
2022-12-24T00:19:45.520Z,-93.01
2022-12-24T00:20:45.501Z,-92.70
2022-12-24T00:21:45.476Z,-93.03
2022-12-24T00:22:48.472Z,-94.30
2022-12-24T00:23:48.511Z,-92.87
2022-12-24T00:24:45.437Z,-92.76
2022-12-24T00:25:45.439Z,-92.91
2022-12-24T00:26:45.408Z,-92.80
2022-12-24T00:27:45.399Z,-92.80
2022-12-24T00:28:45.403Z,-92.80
2022-12-24T00:29:45.414Z,-92.90
2022-12-24T00:30:45.383Z,-92.80
2022-12-24T00:31:45.388Z,-92.86
2022-12-24T00:32:45.337Z,-92.67
2022-12-24T00:33:45.309Z,-92.56
2022-12-24T00:34:45.307Z,-92.59
2022-12-24T00:35:45.292Z,-92.71
2022-12-24T00:36:45.275Z,-92.59
2022-12-24T00:37:45.289Z,-92.76
2022-12-24T00:38:45.257Z,-92.11
2022-12-24T00:39:45.229Z,-92.68
2022-12-24T00:40:45.245Z,-92.60
2022-12-24T00:41:45.202Z,-92.53
2022-12-24T00:42:48.223Z,-92.23
2022-12-24T00:43:48.193Z,-92.21
2022-12-24T00:44:45.175Z,-92.11
2022-12-24T00:45:45.171Z,-92.21
2022-12-24T00:46:45.222Z,-92.62
2022-12-24T00:47:45.182Z,-92.65
2022-12-24T00:48:45.112Z,-92.72
2022-12-24T00:49:45.099Z,-92.57
2022-12-24T00:50:45.111Z,-92.39
2022-12-24T00:51:45.210Z,-92.22
2022-12-24T00:52:45.063Z,-92.50
2022-12-24T00:53:45.079Z,-92.69
2022-12-24T00:54:45.064Z,-92.48
2022-12-24T00:55:45.032Z,-92.60
2022-12-24T00:56:45.023Z,-92.47
2022-12-24T00:57:45.009Z,-92.57
2022-12-24T00:58:44.970Z,-92.68
2022-12-24T00:59:45.004Z,-92.53
2022-12-24T01:00:44.951Z,-92.65
2022-12-24T01:01:45.020Z,-92.14
2022-12-24T01:02:48.113Z,-91.91
2022-12-24T01:03:47.988Z,-92.15
2022-12-24T01:04:44.898Z,-92.01
2022-12-24T01:05:44.916Z,-92.13
2022-12-24T01:06:44.891Z,-92.02
2022-12-24T01:07:45.052Z,-92.04
2022-12-24T01:08:44.849Z,-92.41
2022-12-24T01:09:44.840Z,-92.23
2022-12-24T01:10:44.805Z,-92.60
2022-12-24T01:11:44.826Z,-92.32
2022-12-24T01:12:44.786Z,-92.30
2022-12-24T01:13:44.777Z,-92.36
2022-12-24T01:14:44.760Z,-92.25
2022-12-24T01:15:44.786Z,-92.46
2022-12-24T01:16:44.756Z,-92.49
2022-12-24T01:17:44.719Z,-92.54
2022-12-24T01:18:44.715Z,-92.61
2022-12-24T01:19:44.723Z,-92.78
2022-12-24T01:20:44.675Z,-92.76
2022-12-24T01:21:44.655Z,-92.78
2022-12-24T01:22:47.679Z,-92.54
2022-12-24T01:23:47.660Z,-92.21
2022-12-24T01:24:44.625Z,-92.11
2022-12-24T01:25:44.610Z,-92.06
2022-12-24T01:26:44.623Z,-92.35
2022-12-24T01:27:44.580Z,-92.05
2022-12-24T01:28:44.590Z,-92.27
2022-12-24T01:29:44.561Z,-92.37
2022-12-24T01:30:44.625Z,-92.57
2022-12-24T01:31:44.592Z,-92.27
2022-12-24T01:32:44.521Z,-92.11
2022-12-24T01:33:44.527Z,-91.99
2022-12-24T01:34:44.504Z,-91.95
2022-12-24T01:35:44.461Z,-92.05
2022-12-24T01:36:44.448Z,-92.04
2022-12-24T01:37:44.432Z,-91.84
2022-12-24T01:38:44.441Z,-91.71
2022-12-24T01:39:44.412Z,-92.09
2022-12-24T01:40:44.393Z,-92.21
2022-12-24T01:41:44.376Z,-91.89
2022-12-24T01:42:47.362Z,-92.30
2022-12-24T01:43:47.395Z,-92.50
2022-12-24T01:44:44.334Z,-92.30
2022-12-24T01:45:44.340Z,-92.31
2022-12-24T01:46:44.384Z,-92.38
2022-12-24T01:47:44.348Z,-92.11
2022-12-24T01:48:44.287Z,-91.98
2022-12-24T01:49:44.274Z,-92.17
2022-12-24T01:50:44.244Z,-92.04
2022-12-24T01:51:44.245Z,-91.96
2022-12-24T01:52:44.230Z,-92.09
2022-12-24T01:53:44.235Z,-92.11
2022-12-24T01:54:44.196Z,-92.09
2022-12-24T01:55:44.173Z,-91.98
2022-12-24T01:56:44.225Z,-92.32
2022-12-24T01:57:44.161Z,-92.20
2022-12-24T01:58:44.136Z,-92.18
2022-12-24T01:59:44.136Z,-92.49
2022-12-24T02:00:44.129Z,-92.73
2022-12-24T02:01:44.161Z,-92.66
2022-12-24T02:02:47.328Z,-92.53
2022-12-24T02:03:47.180Z,-92.38
2022-12-24T02:04:44.067Z,-92.34
2022-12-24T02:05:44.038Z,-92.55
2022-12-24T02:06:44.037Z,-92.55
2022-12-24T02:07:44.038Z,-92.69
2022-12-24T02:08:43.998Z,-92.44
2022-12-24T02:09:43.988Z,-92.19
2022-12-24T02:10:44.004Z,-92.23
2022-12-24T02:11:43.991Z,-92.34
2022-12-24T02:12:43.966Z,-92.38
2022-12-24T02:13:43.930Z,-92.52
2022-12-24T02:14:43.910Z,-92.33
2022-12-24T02:15:44.014Z,-92.11
2022-12-24T02:16:43.935Z,-92.19
2022-12-24T02:17:43.881Z,-92.25
2022-12-24T02:18:43.861Z,-92.61
2022-12-24T02:19:43.855Z,-92.99
2022-12-24T02:20:43.875Z,-92.55
2022-12-24T02:21:43.823Z,-92.28
2022-12-24T02:22:46.802Z,-92.52
2022-12-24T02:23:46.845Z,-92.38
2022-12-24T02:24:43.793Z,-92.11
2022-12-24T02:25:43.799Z,-92.03
2022-12-24T02:26:43.751Z,-91.69
2022-12-24T02:27:43.751Z,-91.80
2022-12-24T02:28:43.794Z,-91.88
2022-12-24T02:29:43.711Z,-91.89
2022-12-24T02:30:43.710Z,-91.95
2022-12-24T02:31:43.762Z,-92.13
2022-12-24T02:32:43.676Z,-92.17
2022-12-24T02:33:43.658Z,-92.28
2022-12-24T02:34:43.669Z,-92.09
2022-12-24T02:35:43.655Z,-92.07
2022-12-24T02:36:43.630Z,-91.94
2022-12-24T02:37:43.611Z,-92.07
2022-12-24T02:38:43.626Z,-92.30
2022-12-24T02:39:43.574Z,-92.34
2022-12-24T02:40:43.593Z,-92.26
2022-12-24T02:41:43.554Z,-92.30
2022-12-24T02:42:46.565Z,-92.47
2022-12-24T02:43:46.596Z,-92.71
2022-12-24T02:44:43.508Z,-92.32
2022-12-24T02:45:43.506Z,-92.63
2022-12-24T02:46:43.552Z,-92.31
2022-12-24T02:47:43.466Z,-92.29
2022-12-24T02:48:43.464Z,-92.34
2022-12-24T02:49:43.456Z,-92.07
2022-12-24T02:50:43.455Z,-91.98
2022-12-24T02:51:43.436Z,-92.39
2022-12-24T02:52:43.400Z,-92.27
2022-12-24T02:53:43.395Z,-92.31
2022-12-24T02:54:43.376Z,-92.09
2022-12-24T02:55:43.415Z,-92.19
2022-12-24T02:56:43.339Z,-92.13
2022-12-24T02:57:43.326Z,-92.10
2022-12-24T02:58:43.308Z,-91.86
2022-12-24T02:59:43.298Z,-92.17
2022-12-24T03:00:43.379Z,-92.15
2022-12-24T03:01:43.474Z,-92.03
2022-12-24T03:02:46.332Z,-91.88
2022-12-24T03:03:46.258Z,-92.19
2022-12-24T03:04:43.220Z,-92.32
2022-12-24T03:05:43.216Z,-92.41
2022-12-24T03:06:43.197Z,-92.19
2022-12-24T03:07:43.241Z,-92.25
2022-12-24T03:08:43.202Z,-92.19
2022-12-24T03:09:43.161Z,-91.87
2022-12-24T03:10:43.225Z,-91.79
2022-12-24T03:11:43.132Z,-91.81
2022-12-24T03:12:43.123Z,-91.85
2022-12-24T03:13:43.110Z,-90.31
2022-12-24T03:14:43.092Z,-91.72
2022-12-24T03:15:43.084Z,-91.71
2022-12-24T03:16:43.104Z,-91.86
2022-12-24T03:17:43.046Z,-91.95
2022-12-24T03:18:43.032Z,-91.66
2022-12-24T03:19:43.022Z,-92.21
2022-12-24T03:20:43.073Z,-91.98
2022-12-24T03:21:42.992Z,-91.69
2022-12-24T03:22:45.992Z,-91.76
2022-12-24T03:23:45.984Z,-91.62
2022-12-24T03:24:42.956Z,-91.74
2022-12-24T03:25:42.934Z,-91.65
2022-12-24T03:26:42.943Z,-91.68
2022-12-24T03:27:42.915Z,-91.94
2022-12-24T03:28:42.886Z,-91.86
2022-12-24T03:29:42.875Z,-91.90
2022-12-24T03:30:42.870Z,-90.36
2022-12-24T03:31:42.912Z,-92.02
2022-12-24T03:32:42.844Z,-92.18
2022-12-24T03:33:42.828Z,-92.29
2022-12-24T03:34:42.807Z,-92.27
2022-12-24T03:35:42.825Z,-92.46
2022-12-24T03:36:42.788Z,-92.39
2022-12-24T03:37:50.326Z,-92.40
2022-12-24T03:38:42.770Z,-92.32
2022-12-24T03:39:42.790Z,-91.65
2022-12-24T03:40:42.742Z,-91.92
2022-12-24T03:41:42.735Z,-92.21
2022-12-24T03:42:45.726Z,-92.02
2022-12-24T03:43:45.742Z,-92.29
2022-12-24T03:44:42.741Z,-92.21
2022-12-24T03:45:42.732Z,-92.04
2022-12-24T03:46:42.658Z,-92.10
2022-12-24T03:47:42.641Z,-92.32
2022-12-24T03:48:42.627Z,-92.24
2022-12-24T03:49:42.601Z,-91.77
2022-12-24T03:50:42.630Z,-91.88
2022-12-24T03:51:42.577Z,-92.07
2022-12-24T03:52:42.576Z,-92.23
2022-12-24T03:53:42.549Z,-92.40
2022-12-24T03:54:42.704Z,-92.48
2022-12-24T03:55:42.535Z,-92.31
2022-12-24T03:56:42.517Z,-92.27
2022-12-24T03:57:42.505Z,-92.36
2022-12-24T03:58:42.484Z,-92.34
2022-12-24T03:59:42.479Z,-92.60
2022-12-24T04:00:42.521Z,-92.43
2022-12-24T04:01:42.563Z,-92.57
2022-12-24T04:02:45.657Z,-92.72
2022-12-24T04:03:45.437Z,-92.15
2022-12-24T04:04:42.432Z,-92.27
2022-12-24T04:05:42.386Z,-92.46
2022-12-24T04:06:42.435Z,-92.57
2022-12-24T04:07:42.354Z,-93.00
2022-12-24T04:08:42.386Z,-92.89
2022-12-24T04:09:42.368Z,-92.91
2022-12-24T04:10:42.334Z,-92.51
2022-12-24T04:11:42.352Z,-92.22
2022-12-24T04:12:42.318Z,-92.38
2022-12-24T04:13:42.277Z,-92.27
2022-12-24T04:14:42.261Z,-92.61
2022-12-24T04:15:42.240Z,-92.34
2022-12-24T04:16:42.366Z,-92.59
2022-12-24T04:17:42.225Z,-92.32
2022-12-24T04:18:42.262Z,-92.12
2022-12-24T04:19:42.201Z,-91.77
2022-12-24T04:20:42.207Z,-90.28
2022-12-24T04:21:42.231Z,-90.36
2022-12-24T04:22:45.165Z,-90.33
2022-12-24T04:23:45.175Z,-91.63
2022-12-24T04:24:42.145Z,-90.24
2022-12-24T04:25:42.151Z,-90.28
2022-12-24T04:26:42.101Z,-91.79
2022-12-24T04:27:42.121Z,-91.76
2022-12-24T04:28:42.067Z,-90.40
2022-12-24T04:29:42.050Z,-91.90
2022-12-24T04:30:42.050Z,-92.00
2022-12-24T04:31:42.066Z,-91.86
2022-12-24T04:32:42.072Z,-91.69
2022-12-24T04:33:42.010Z,-90.38
2022-12-24T04:34:42.002Z,-91.73
2022-12-24T04:35:41.988Z,-91.81
2022-12-24T04:36:41.961Z,-91.81
2022-12-24T04:37:41.997Z,-92.01
2022-12-24T04:38:41.929Z,-92.29
2022-12-24T04:39:41.924Z,-92.43
2022-12-24T04:40:41.926Z,-92.67
2022-12-24T04:41:42.026Z,-92.38
2022-12-24T04:42:44.905Z,-92.89
2022-12-24T04:43:44.974Z,-92.48
2022-12-24T04:44:41.841Z,-92.39
2022-12-24T04:45:41.841Z,-92.65
2022-12-24T04:46:41.816Z,-92.73
2022-12-24T04:47:41.855Z,-92.77
2022-12-24T04:48:41.788Z,-92.97
2022-12-24T04:49:41.784Z,-92.99
2022-12-24T04:50:41.774Z,-92.28
2022-12-24T04:51:41.754Z,-91.97
2022-12-24T04:52:41.736Z,-92.00
2022-12-24T04:53:41.748Z,-92.07
2022-12-24T04:54:41.718Z,-92.15
2022-12-24T04:55:41.697Z,-92.48
2022-12-24T04:56:41.696Z,-92.40
2022-12-24T04:57:41.726Z,-92.67
2022-12-24T04:58:41.669Z,-92.29
2022-12-24T04:59:41.657Z,-92.30
2022-12-24T05:00:41.655Z,-92.86
2022-12-24T05:01:41.706Z,-92.76
2022-12-24T05:02:44.739Z,-92.84
2022-12-24T05:03:44.620Z,-92.78
2022-12-24T05:04:41.619Z,-92.39
2022-12-24T05:05:41.569Z,-92.45
2022-12-24T05:06:41.556Z,-92.67
2022-12-24T05:07:41.552Z,-92.72
2022-12-24T05:08:41.543Z,-93.00
2022-12-24T05:09:41.520Z,-92.89
2022-12-24T05:10:41.616Z,-94.65
2022-12-24T05:11:41.499Z,-94.38
2022-12-24T05:12:41.469Z,-92.99
2022-12-24T05:13:46.523Z,-93.01
2022-12-24T05:14:42.472Z,-94.44
2022-12-24T05:15:41.463Z,-94.51
2022-12-24T05:16:41.444Z,-94.52
2022-12-24T05:17:41.424Z,-94.33
2022-12-24T05:18:41.384Z,-92.97
2022-12-24T05:19:41.428Z,-92.61
2022-12-24T05:20:41.402Z,-92.79
2022-12-24T05:21:41.348Z,-92.92
2022-12-24T05:22:44.331Z,-94.32
2022-12-24T05:23:44.350Z,-92.98
2022-12-24T05:24:41.313Z,-92.78
2022-12-24T05:25:41.454Z,-92.79
2022-12-24T05:26:41.296Z,-93.10
2022-12-24T05:27:44.642Z,-92.95
2022-12-24T05:28:42.259Z,-92.89
2022-12-24T05:29:41.244Z,-92.78
2022-12-24T05:30:41.308Z,-92.68
2022-12-24T05:31:41.214Z,-92.53
2022-12-24T05:32:41.197Z,-92.69
2022-12-24T05:33:41.185Z,-92.53
2022-12-24T05:34:41.190Z,-92.66
2022-12-24T05:35:41.195Z,-92.67
2022-12-24T05:36:41.176Z,-92.58
2022-12-24T05:37:41.156Z,-92.43
2022-12-24T05:38:41.144Z,-92.63
2022-12-24T05:39:41.106Z,-92.43
2022-12-24T05:40:41.105Z,-92.46
2022-12-24T05:41:41.104Z,-92.70
2022-12-24T05:42:44.055Z,-92.78
2022-12-24T05:43:44.072Z,-92.70
2022-12-24T05:44:41.027Z,-92.77
2022-12-24T05:45:41.045Z,-92.86
2022-12-24T05:46:41.089Z,-92.63
2022-12-24T05:47:43.510Z,-92.74
2022-12-24T05:48:41.045Z,-92.59
2022-12-24T05:49:40.965Z,-92.34
2022-12-24T05:50:40.947Z,-92.54
2022-12-24T05:51:40.950Z,-92.44
2022-12-24T05:52:40.992Z,-92.46
2022-12-24T05:53:40.920Z,-91.94
2022-12-24T05:54:40.932Z,-92.11
2022-12-24T05:55:40.892Z,-92.51
2022-12-24T05:56:40.894Z,-92.47
2022-12-24T05:57:40.874Z,-92.27
2022-12-24T05:58:40.880Z,-92.46
2022-12-24T05:59:40.832Z,-92.32
2022-12-24T06:00:40.821Z,-92.29
2022-12-24T06:01:40.955Z,-92.25
2022-12-24T06:02:43.860Z,-92.28
2022-12-24T06:03:43.822Z,-92.11
2022-12-24T06:04:40.838Z,-92.36
2022-12-24T06:05:40.747Z,-92.55
2022-12-24T06:06:40.752Z,-92.69
2022-12-24T06:07:40.717Z,-92.66
2022-12-24T06:08:40.740Z,-92.51
2022-12-24T06:09:40.695Z,-92.69
2022-12-24T06:10:40.681Z,-92.54
2022-12-24T06:11:40.697Z,-92.53
2022-12-24T06:12:40.660Z,-92.56
2022-12-24T06:13:40.638Z,-92.56
2022-12-24T06:14:40.637Z,-92.56
2022-12-24T06:15:40.671Z,-92.72
2022-12-24T06:16:40.677Z,-92.48
2022-12-24T06:17:40.567Z,-93.03
2022-12-24T06:18:40.637Z,-93.02
2022-12-24T06:19:40.545Z,-94.53
2022-12-24T06:20:40.540Z,-94.73
2022-12-24T06:21:40.527Z,-94.48
2022-12-24T06:22:43.548Z,-94.41
2022-12-24T06:23:43.560Z,-92.81
2022-12-24T06:24:40.502Z,-92.36
2022-12-24T06:25:40.470Z,-91.93
2022-12-24T06:26:40.479Z,-91.83
2022-12-24T06:27:40.436Z,-92.04
2022-12-24T06:28:40.492Z,-91.83
2022-12-24T06:29:40.476Z,-91.98
2022-12-24T06:30:40.396Z,-92.28
2022-12-24T06:31:40.490Z,-92.46
2022-12-24T06:32:40.394Z,-92.70
2022-12-24T06:33:40.389Z,-92.98
2022-12-24T06:34:40.338Z,-93.09
2022-12-24T06:35:40.346Z,-94.52
2022-12-24T06:36:40.308Z,-94.59
2022-12-24T06:37:40.292Z,-94.65
2022-12-24T06:38:40.280Z,-94.32
2022-12-24T06:39:40.289Z,-94.51
2022-12-24T06:40:40.257Z,-92.93
2022-12-24T06:41:40.240Z,-92.85
2022-12-24T06:42:43.280Z,-94.45
2022-12-24T06:43:43.235Z,-94.73
2022-12-24T06:44:40.201Z,-95.11
2022-12-24T06:45:40.181Z,-95.14
2022-12-24T06:46:40.183Z,-95.14
2022-12-24T06:47:40.153Z,-94.95
2022-12-24T06:48:40.163Z,-95.16
2022-12-24T06:49:40.123Z,-95.11
2022-12-24T06:50:40.120Z,-94.88
2022-12-24T06:51:40.123Z,-94.74
2022-12-24T06:52:40.092Z,-94.63
2022-12-24T06:53:40.086Z,-94.95
2022-12-24T06:54:40.060Z,-94.76
2022-12-24T06:55:40.037Z,-95.05
2022-12-24T06:56:40.053Z,-95.34
2022-12-24T06:57:40.040Z,-95.50
2022-12-24T06:58:40.007Z,-95.45
2022-12-24T06:59:39.976Z,-95.26
2022-12-24T07:00:40.005Z,-95.09
2022-12-24T07:01:40.096Z,-94.95
2022-12-24T07:02:43.047Z,-95.33
2022-12-24T07:03:43.004Z,-95.31
2022-12-24T07:04:39.915Z,-95.28
2022-12-24T07:05:39.895Z,-94.87
2022-12-24T07:06:39.896Z,-94.80
2022-12-24T07:07:39.902Z,-94.73
2022-12-24T07:08:39.879Z,-94.71
2022-12-24T07:09:39.872Z,-94.84
2022-12-24T07:10:39.837Z,-94.67
2022-12-24T07:11:39.806Z,-93.01
2022-12-24T07:12:39.801Z,-93.05
2022-12-24T07:13:39.784Z,-92.97
2022-12-24T07:14:39.817Z,-93.11
2022-12-24T07:15:39.774Z,-94.41
2022-12-24T07:16:39.936Z,-94.34
2022-12-24T07:17:39.806Z,-94.46
2022-12-24T07:18:39.725Z,-94.48
2022-12-24T07:19:39.728Z,-93.06
2022-12-24T07:20:39.704Z,-93.06
2022-12-24T07:21:39.682Z,-94.58
2022-12-24T07:22:42.674Z,-94.75
2022-12-24T07:23:42.677Z,-92.99
2022-12-24T07:24:39.668Z,-94.57
2022-12-24T07:25:39.671Z,-94.39
2022-12-24T07:26:39.609Z,-92.83
2022-12-24T07:27:39.607Z,-92.82
2022-12-24T07:28:39.591Z,-92.97
2022-12-24T07:29:39.610Z,-94.31
2022-12-24T07:30:39.568Z,-94.81
2022-12-24T07:31:39.638Z,-94.90
2022-12-24T07:32:39.540Z,-95.05
2022-12-24T07:33:39.516Z,-95.01
2022-12-24T07:34:39.514Z,-95.50
2022-12-24T07:35:39.501Z,-95.66
2022-12-24T07:36:39.500Z,-95.72
2022-12-24T07:37:39.462Z,-95.70
2022-12-24T07:38:39.458Z,-95.89
2022-12-24T07:39:39.436Z,-96.00
2022-12-24T07:40:39.459Z,-97.49
2022-12-24T07:41:41.685Z,-97.60
2022-12-24T07:42:42.423Z,-97.60
2022-12-24T07:43:42.425Z,-95.87
2022-12-24T07:44:39.372Z,-97.35
2022-12-24T07:45:39.387Z,-97.55
2022-12-24T07:46:39.349Z,-97.71
2022-12-24T07:47:39.395Z,-97.71
2022-12-24T07:48:39.319Z,-97.74
2022-12-24T07:49:39.287Z,-97.76
2022-12-24T07:50:39.293Z,-97.94
2022-12-24T07:51:39.265Z,-98.00
2022-12-24T07:52:39.256Z,-98.20
2022-12-24T07:53:39.269Z,-98.18
2022-12-24T07:54:39.225Z,-98.14
2022-12-24T07:55:39.217Z,-98.31
2022-12-24T07:56:39.200Z,-98.25
2022-12-24T07:57:39.179Z,-98.27
2022-12-24T07:58:39.196Z,-98.28
2022-12-24T07:59:39.152Z,-98.16
2022-12-24T08:00:39.160Z,-97.66
2022-12-24T08:01:39.317Z,-95.80
2022-12-24T08:02:42.320Z,-95.54
2022-12-24T08:03:42.284Z,-95.49
2022-12-24T08:04:39.090Z,-95.56
2022-12-24T08:05:39.070Z,-95.28
2022-12-24T08:06:39.189Z,-94.97
2022-12-24T08:07:39.067Z,-95.07
2022-12-24T08:08:39.098Z,-95.65
2022-12-24T08:09:39.018Z,-97.25
2022-12-24T08:10:39.010Z,-97.63
2022-12-24T08:11:38.981Z,-97.73
2022-12-24T08:12:38.980Z,-97.78
2022-12-24T08:13:38.956Z,-97.82
2022-12-24T08:14:38.996Z,-97.91
2022-12-24T08:15:38.940Z,-98.08
2022-12-24T08:16:38.984Z,-98.12
2022-12-24T08:17:38.905Z,-98.23
2022-12-24T08:18:38.901Z,-98.35
2022-12-24T08:19:38.924Z,-98.28
2022-12-24T08:20:38.874Z,-98.26
2022-12-24T08:21:38.856Z,-98.39
2022-12-24T08:22:41.850Z,-98.42
2022-12-24T08:23:41.847Z,-98.33
2022-12-24T08:24:38.841Z,-98.41
2022-12-24T08:25:38.798Z,-98.45
2022-12-24T08:26:38.841Z,-98.42
2022-12-24T08:27:38.774Z,-98.08
2022-12-24T08:28:38.770Z,-98.37
2022-12-24T08:29:38.753Z,-98.52
2022-12-24T08:30:38.743Z,-98.56
2022-12-24T08:31:38.756Z,-98.79
2022-12-24T08:32:38.734Z,-99.04
2022-12-24T08:33:38.693Z,-98.84
2022-12-24T08:34:38.712Z,-98.95
2022-12-24T08:35:38.695Z,-99.01
2022-12-24T08:36:38.654Z,-99.19
2022-12-24T08:37:38.637Z,-100.52
2022-12-24T08:38:38.634Z,-99.05
2022-12-24T08:39:38.613Z,-100.55
2022-12-24T08:40:38.612Z,-100.61
2022-12-24T08:41:38.606Z,-100.58
2022-12-24T08:42:41.684Z,-98.71
2022-12-24T08:43:41.594Z,-97.95
2022-12-24T08:44:38.557Z,-98.06
2022-12-24T08:45:40.988Z,-98.20
2022-12-24T08:46:38.558Z,-98.02
2022-12-24T08:47:38.500Z,-98.60
2022-12-24T08:48:38.534Z,-98.94
2022-12-24T08:49:38.474Z,-100.52
2022-12-24T08:50:38.482Z,-100.77
2022-12-24T08:51:38.449Z,-101.04
2022-12-24T08:52:38.439Z,-101.27
2022-12-24T08:53:38.431Z,-101.46
2022-12-24T08:54:38.435Z,-101.65
2022-12-24T08:55:38.397Z,-101.55
2022-12-24T08:56:38.385Z,-101.66
2022-12-24T08:57:38.382Z,-101.97
2022-12-24T08:58:38.454Z,-102.25
2022-12-24T08:59:38.339Z,-102.43
2022-12-24T09:00:38.451Z,-102.39
2022-12-24T09:01:38.453Z,-102.64
2022-12-24T09:02:41.559Z,-102.84
2022-12-24T09:03:41.408Z,-102.88
2022-12-24T09:04:38.270Z,-103.01
2022-12-24T09:05:38.271Z,-104.41
2022-12-24T09:06:38.251Z,-104.62
2022-12-24T09:07:38.239Z,-104.54
2022-12-24T09:08:38.251Z,-104.73
2022-12-24T09:09:38.480Z,-104.79
2022-12-24T09:10:38.239Z,-104.91
2022-12-24T09:11:38.182Z,-105.19
2022-12-24T09:12:38.170Z,-105.52
2022-12-24T09:13:38.204Z,-106.09
2022-12-24T09:14:38.152Z,-106.22
2022-12-24T09:15:38.129Z,-106.59
2022-12-24T09:16:38.173Z,-106.85
2022-12-24T09:17:38.110Z,-107.02
2022-12-24T09:18:38.134Z,-107.22
2022-12-24T09:19:38.105Z,-107.02
2022-12-24T09:20:41.466Z,-107.38
2022-12-24T09:21:39.043Z,-107.38
2022-12-24T09:22:41.043Z,-107.27
2022-12-24T09:23:41.056Z,-107.07
2022-12-24T09:24:38.005Z,-107.29
2022-12-24T09:25:37.994Z,-107.27
2022-12-24T09:26:37.975Z,-107.32
2022-12-24T09:27:37.970Z,-107.34
2022-12-24T09:28:37.984Z,-107.40
2022-12-24T09:29:37.936Z,-107.68
2022-12-24T09:30:37.964Z,-107.73
2022-12-24T09:31:37.931Z,-108.19
2022-12-24T09:32:37.901Z,-108.38
2022-12-24T09:33:37.888Z,-108.83
2022-12-24T09:34:37.896Z,-109.36
2022-12-24T09:35:37.864Z,-109.14
2022-12-24T09:36:37.841Z,-109.20
2022-12-24T09:37:45.365Z,-109.22
2022-12-24T09:38:37.825Z,-109.53
2022-12-24T09:39:37.839Z,-109.93
2022-12-24T09:40:37.857Z,-110.41
2022-12-24T09:41:37.790Z,-110.56
2022-12-24T09:42:40.763Z,-110.27
2022-12-24T09:43:40.788Z,-110.60
2022-12-24T09:44:37.753Z,-110.65
2022-12-24T09:45:37.786Z,-110.96
2022-12-24T09:46:37.730Z,-110.89
2022-12-24T09:47:37.694Z,-110.95
2022-12-24T09:48:37.698Z,-111.27
2022-12-24T09:49:37.692Z,-111.50
2022-12-24T09:50:37.704Z,-111.54
2022-12-24T09:51:37.644Z,-111.84
2022-12-24T09:52:37.642Z,-111.73
2022-12-24T09:53:37.620Z,-112.09
2022-12-24T09:54:37.609Z,-112.45
2022-12-24T09:55:37.587Z,-112.48
2022-12-24T09:56:37.603Z,-112.41
2022-12-24T09:57:37.560Z,-112.61
2022-12-24T09:58:37.538Z,-112.94
2022-12-24T09:59:37.541Z,-113.13
2022-12-24T10:00:37.536Z,-113.42
2022-12-24T10:01:37.614Z,-113.55
2022-12-24T10:02:40.736Z,-113.38
2022-12-24T10:03:40.556Z,-112.76
2022-12-24T10:04:37.479Z,-112.64
2022-12-24T10:05:37.470Z,-113.33
2022-12-24T10:06:37.479Z,-113.57
2022-12-24T10:07:37.439Z,-113.79
2022-12-24T10:08:37.459Z,-113.94
2022-12-24T10:09:37.410Z,-113.88
2022-12-24T10:10:37.408Z,-114.64
2022-12-24T10:11:37.425Z,-115.01
2022-12-24T10:12:37.371Z,-115.21
2022-12-24T10:13:37.378Z,-115.52
2022-12-24T10:14:37.331Z,-115.62
2022-12-24T10:15:37.340Z,-115.79
2022-12-24T10:16:37.361Z,-115.84
2022-12-24T10:17:37.354Z,-116.23
2022-12-24T10:18:37.281Z,-116.11
2022-12-24T10:19:37.261Z,-116.53
2022-12-24T10:20:37.298Z,-116.75
2022-12-24T10:21:37.246Z,-117.04
2022-12-24T10:22:40.237Z,-117.33
2022-12-24T10:23:40.231Z,-116.85
2022-12-24T10:24:37.234Z,-117.22
2022-12-24T10:25:37.194Z,-118.09
2022-12-24T10:26:37.167Z,-118.89
2022-12-24T10:27:37.162Z,-118.98
2022-12-24T10:28:37.144Z,-119.43
2022-12-24T10:29:37.135Z,-119.23
2022-12-24T10:30:37.186Z,-119.42
2022-12-24T10:31:37.113Z,-119.38
2022-12-24T10:32:37.092Z,-119.95
2022-12-24T10:33:37.087Z,-120.00
2022-12-24T10:34:37.065Z,-120.28
2022-12-24T10:35:37.063Z,-120.66
2022-12-24T10:36:37.073Z,-121.27
2022-12-24T10:37:37.028Z,-121.62
2022-12-24T10:38:37.018Z,-121.75
2022-12-24T10:39:36.989Z,-121.62
2022-12-24T10:40:37.031Z,-121.44
2022-12-24T10:41:36.967Z,-120.51
2022-12-24T10:42:44.718Z,-120.23
2022-12-24T10:43:40.959Z,-119.79
2022-12-24T10:44:36.994Z,-120.05
2022-12-24T10:45:36.922Z,-120.41
2022-12-24T10:46:36.928Z,-120.81
2022-12-24T10:47:36.887Z,-121.28
2022-12-24T10:48:36.888Z,-120.93
2022-12-24T10:49:36.851Z,-120.43
2022-12-24T10:50:36.879Z,-120.80
2022-12-24T10:51:36.821Z,-121.11
2022-12-24T10:52:36.867Z,-121.46
2022-12-24T10:53:36.805Z,-121.71
2022-12-24T10:54:36.809Z,-122.23
2022-12-24T10:55:36.778Z,-121.83
2022-12-24T10:56:36.781Z,-121.54
2022-12-24T10:57:36.755Z,-121.60
2022-12-24T10:58:36.779Z,-121.98
2022-12-24T10:59:36.712Z,-121.71
2022-12-24T11:00:36.910Z,-121.48
2022-12-24T11:01:36.799Z,-121.49
2022-12-24T11:02:39.900Z,-121.34
2022-12-24T11:03:39.740Z,-120.37
2022-12-24T11:04:36.647Z,-120.11
2022-12-24T11:05:36.643Z,-120.61
2022-12-24T11:06:36.624Z,-120.51
2022-12-24T11:07:36.616Z,-121.15
2022-12-24T11:08:36.627Z,-120.95
2022-12-24T11:09:36.584Z,-120.87
2022-12-24T11:10:36.575Z,-120.59
2022-12-24T11:11:36.562Z,-121.09
2022-12-24T11:12:36.574Z,-121.25
2022-12-24T11:13:38.514Z,-121.13
2022-12-24T11:14:36.535Z,-121.39
2022-12-24T11:15:36.500Z,-121.92
2022-12-24T11:16:36.487Z,-122.17
2022-12-24T11:17:36.468Z,-122.23
2022-12-24T11:18:36.505Z,-122.84
2022-12-24T11:19:36.438Z,-123.12
2022-12-24T11:20:36.437Z,-122.70
2022-12-24T11:21:36.435Z,-123.21
2022-12-24T11:22:39.417Z,-122.70
2022-12-24T11:23:39.466Z,-122.05
2022-12-24T11:24:36.405Z,-122.56
2022-12-24T11:25:36.358Z,-122.52
2022-12-24T11:26:36.348Z,-121.88
2022-12-24T11:27:36.338Z,-122.51
2022-12-24T11:28:36.330Z,-123.23
2022-12-24T11:29:36.345Z,-122.93
2022-12-24T11:30:36.359Z,-123.09
2022-12-24T11:31:36.359Z,-123.00
2022-12-24T11:32:36.269Z,-123.43
2022-12-24T11:33:36.290Z,-123.67
2022-12-24T11:34:36.243Z,-123.49
2022-12-24T11:35:36.229Z,-123.03
2022-12-24T11:36:36.241Z,-123.11
2022-12-24T11:37:36.197Z,-124.04
2022-12-24T11:38:36.206Z,-124.40
2022-12-24T11:39:36.202Z,-124.38
2022-12-24T11:40:36.161Z,-124.61
2022-12-24T11:41:36.163Z,-124.81
2022-12-24T11:42:39.149Z,-125.44
2022-12-24T11:43:39.145Z,-125.55
2022-12-24T11:44:36.173Z,-125.90
2022-12-24T11:45:36.093Z,-125.88
2022-12-24T11:46:36.117Z,-126.03
2022-12-24T11:47:36.088Z,-126.03
2022-12-24T11:48:36.051Z,-125.86
2022-12-24T11:49:36.050Z,-126.03
2022-12-24T11:50:36.059Z,-125.20
2022-12-24T11:51:36.011Z,-125.24
2022-12-24T11:52:35.995Z,-123.97
2022-12-24T11:53:35.995Z,-124.81
2022-12-24T11:54:35.965Z,-123.69
2022-12-24T11:55:36.049Z,-123.84
2022-12-24T11:56:35.938Z,-124.21
2022-12-24T11:57:35.926Z,-124.35
2022-12-24T11:58:35.924Z,-124.21
2022-12-24T11:59:35.907Z,-123.96
2022-12-24T12:00:35.888Z,-124.20
2022-12-24T12:01:35.936Z,-124.22
2022-12-24T12:02:38.883Z,-124.40
2022-12-24T12:03:38.938Z,-123.63
2022-12-24T12:04:35.843Z,-123.84
2022-12-24T12:05:35.820Z,-123.69
2022-12-24T12:06:35.802Z,-123.79
2022-12-24T12:07:35.789Z,-124.02
2022-12-24T12:08:35.830Z,-123.93
2022-12-24T12:09:35.773Z,-124.23
2022-12-24T12:10:35.761Z,-124.35
2022-12-24T12:11:35.738Z,-124.57
2022-12-24T12:12:35.719Z,-124.72
2022-12-24T12:13:35.717Z,-124.68
2022-12-24T12:14:35.723Z,-124.58
2022-12-24T12:15:35.686Z,-124.81
2022-12-24T12:16:35.712Z,-124.76
2022-12-24T12:17:35.663Z,-125.29
2022-12-24T12:18:35.672Z,-124.81
2022-12-24T12:19:35.658Z,-125.06
2022-12-24T12:20:35.651Z,-125.23
2022-12-24T12:21:35.618Z,-125.50